This is the latest recevied weather packets stored in our database for station/object N6DZK. If no packets are shown the sender has not sent any weather packets the latest 10 day(s).
| Time | Temp. | Humidity | Pressure | Rain* | Wind** | Luminosity | Snow |
|---|---|---|---|---|---|---|---|
| 1777562701 | 15° C | 73% | 1015.9 hPa | 0 mm | - | 284 W/m² | - |
| 1777562400 | 15.56° C | 74% | 1015.8 hPa | 0 mm | - | 253 W/m² | - |
| 1777562096 | 15.56° C | 73% | 1015.8 hPa | 0 mm | - | 242 W/m² | - |
| 1777561794 | 15° C | 72% | 1015.8 hPa | 0 mm | - | 230 W/m² | - |
| 1777561489 | 15° C | 74% | 1015.9 hPa | 0 mm | - | 205 W/m² | - |
| 1777561185 | 14.44° C | 78% | 1015.9 hPa | 0 mm | - | 195 W/m² | - |
| 1777560880 | 13.89° C | 81% | 1015.8 hPa | 0 mm | - | 204 W/m² | - |
| 1777560578 | 13.33° C | 86% | 1015.9 hPa | 0 mm | - | 172 W/m² | - |
| 1777560275 | 11.67° C | 96% | 1016 hPa | 0 mm | - | 184 W/m² | - |
| 1777559972 | 10.56° C | 97% | 1015.8 hPa | 0 mm | - | 183 W/m² | - |
| 1777559667 | 10° C | 98% | 1016 hPa | 0 mm | - | 123 W/m² | - |
| 1777559365 | 9.44° C | 98% | 1015.8 hPa | 0 mm | - | 128 W/m² | - |
| 1777559062 | 8.89° C | 98% | 1015.8 hPa | 0 mm | - | 105 W/m² | - |
| 1777558762 | 8.89° C | 98% | 1015.8 hPa | 0 mm | - | 85 W/m² | - |
| 1777558458 | 8.33° C | 98% | 1015.9 hPa | 0 mm | - | 85 W/m² | - |
| 1777558155 | 8.33° C | 98% | 1015.8 hPa | 0 mm | - | 70 W/m² | - |
| 1777557851 | 7.78° C | 97% | 1015.8 hPa | 0 mm | - | 62 W/m² | - |
| 1777557549 | 7.78° C | 97% | 1015.7 hPa | 0 mm | - | 52 W/m² | - |
| 1777557244 | 7.22° C | 97% | 1015.7 hPa | 0 mm | - | 39 W/m² | - |
| 1777556940 | 6.67° C | 97% | 1015.6 hPa | 0 mm | - | 31 W/m² | - |
| 1777556636 | 6.67° C | 97% | 1015.8 hPa | 0 mm | - | 26 W/m² | - |
| 1777556330 | 6.11° C | 97% | 1015.7 hPa | 0 mm | - | 22 W/m² | - |
| 1777556027 | 6.11° C | 97% | 1015.6 hPa | 0 mm | - | 17 W/m² | - |
| 1777555722 | 6.11° C | 96% | 1015.7 hPa | 0 mm | - | 13 W/m² | - |
| 1777555418 | 6.11° C | 96% | 1015.8 hPa | 0 mm | - | 9 W/m² | - |
* Rain latest hour (hover to see other rain measurements)
** Current wind speed in m/s (hover to see current wind gust speed)